sensor_id;sensor_type;location;lat;lon;timestamp;pressure;altitude;pressure_sealevel;temperature;humidity
50310;BME280;36207;51.850;21.698;2022-07-23T00:00:15;99876.27;;;21.04;63.02
50310;BME280;36207;51.850;21.698;2022-07-23T00:03:01;99871.63;;;21.01;63.07
50310;BME280;36207;51.850;21.698;2022-07-23T00:05:27;99870.70;;;20.97;63.13
50310;BME280;36207;51.850;21.698;2022-07-23T00:07:54;99870.77;;;20.94;63.13
50310;BME280;36207;51.850;21.698;2022-07-23T00:10:20;99869.96;;;20.91;62.90
50310;BME280;36207;51.850;21.698;2022-07-23T00:12:47;99873.91;;;20.87;62.93
50310;BME280;36207;51.850;21.698;2022-07-23T00:15:13;99872.27;;;20.81;63.11
50310;BME280;36207;51.850;21.698;2022-07-23T00:17:39;99872.42;;;20.77;63.27
50310;BME280;36207;51.850;21.698;2022-07-23T00:20:06;99875.96;;;20.74;63.40
50310;BME280;36207;51.850;21.698;2022-07-23T00:22:33;99877.06;;;20.74;63.54
50310;BME280;36207;51.850;21.698;2022-07-23T00:24:59;99878.49;;;20.72;63.51
50310;BME280;36207;51.850;21.698;2022-07-23T00:27:25;99874.20;;;20.65;63.55
50310;BME280;36207;51.850;21.698;2022-07-23T00:29:52;99876.80;;;20.60;63.54
50310;BME280;36207;51.850;21.698;2022-07-23T00:32:18;99881.45;;;20.56;63.58
50310;BME280;36207;51.850;21.698;2022-07-23T00:34:44;99879.35;;;20.51;63.55
50310;BME280;36207;51.850;21.698;2022-07-23T00:37:10;99884.45;;;20.45;63.57
50310;BME280;36207;51.850;21.698;2022-07-23T00:39:37;99880.00;;;20.41;63.63
50310;BME280;36207;51.850;21.698;2022-07-23T00:42:03;99878.79;;;20.40;63.75
50310;BME280;36207;51.850;21.698;2022-07-23T00:44:30;99876.38;;;20.39;63.93
50310;BME280;36207;51.850;21.698;2022-07-23T00:46:58;99877.09;;;20.39;64.15
50310;BME280;36207;51.850;21.698;2022-07-23T00:49:29;99876.30;;;20.38;64.15
50310;BME280;36207;51.850;21.698;2022-07-23T00:51:57;99876.38;;;20.36;64.12
50310;BME280;36207;51.850;21.698;2022-07-23T00:54:26;99875.02;;;20.36;64.52
50310;BME280;36207;51.850;21.698;2022-07-23T00:56:53;99869.92;;;20.39;64.73
50310;BME280;36207;51.850;21.698;2022-07-23T00:59:20;99870.98;;;20.41;64.88
50310;BME280;36207;51.850;21.698;2022-07-23T01:01:46;99870.64;;;20.42;64.84
50310;BME280;36207;51.850;21.698;2022-07-23T01:04:15;99874.37;;;20.41;64.73
50310;BME280;36207;51.850;21.698;2022-07-23T01:06:43;99873.55;;;20.39;64.58
50310;BME280;36207;51.850;21.698;2022-07-23T01:09:11;99870.81;;;20.36;64.49
50310;BME280;36207;51.850;21.698;2022-07-23T01:11:38;99866.69;;;20.33;64.42
50310;BME280;36207;51.850;21.698;2022-07-23T01:14:16;99866.48;;;20.26;64.46
50310;BME280;36207;51.850;21.698;2022-07-23T01:16:44;99867.07;;;20.19;64.61
50310;BME280;36207;51.850;21.698;2022-07-23T01:19:12;99868.25;;;20.12;64.54
50310;BME280;36207;51.850;21.698;2022-07-23T01:21:48;99870.46;;;20.08;64.45
50310;BME280;36207;51.850;21.698;2022-07-23T01:24:15;99872.30;;;20.05;64.57
50310;BME280;36207;51.850;21.698;2022-07-23T01:26:44;99872.69;;;20.05;64.71
50310;BME280;36207;51.850;21.698;2022-07-23T01:29:11;99872.19;;;20.04;64.69
50310;BME280;36207;51.850;21.698;2022-07-23T01:31:37;99870.60;;;20.01;64.75
50310;BME280;36207;51.850;21.698;2022-07-23T01:34:03;99871.16;;;19.96;64.77
50310;BME280;36207;51.850;21.698;2022-07-23T01:36:30;99871.77;;;19.93;65.09
50310;BME280;36207;51.850;21.698;2022-07-23T01:38:57;99875.13;;;19.93;65.06
50310;BME280;36207;51.850;21.698;2022-07-23T01:41:23;99871.34;;;19.90;65.07
50310;BME280;36207;51.850;21.698;2022-07-23T01:43:49;99875.48;;;19.88;65.14
50310;BME280;36207;51.850;21.698;2022-07-23T01:46:16;99875.52;;;19.88;65.38
50310;BME280;36207;51.850;21.698;2022-07-23T01:48:42;99876.64;;;19.87;65.30
50310;BME280;36207;51.850;21.698;2022-07-23T01:51:09;99877.81;;;19.85;65.31
50310;BME280;36207;51.850;21.698;2022-07-23T01:53:35;99877.38;;;19.85;65.27
50310;BME280;36207;51.850;21.698;2022-07-23T01:56:02;99878.17;;;19.88;65.46
50310;BME280;36207;51.850;21.698;2022-07-23T01:58:29;99879.60;;;19.89;65.25
50310;BME280;36207;51.850;21.698;2022-07-23T02:00:56;99879.02;;;19.86;65.25
50310;BME280;36207;51.850;21.698;2022-07-23T02:03:22;99878.81;;;19.81;65.25
50310;BME280;36207;51.850;21.698;2022-07-23T02:05:49;99875.12;;;19.74;65.28
50310;BME280;36207;51.850;21.698;2022-07-23T02:08:16;99875.29;;;19.72;65.29
50310;BME280;36207;51.850;21.698;2022-07-23T02:10:42;99877.77;;;19.71;65.25
50310;BME280;36207;51.850;21.698;2022-07-23T02:13:08;99873.66;;;19.69;65.32
50310;BME280;36207;51.850;21.698;2022-07-23T02:15:35;99874.67;;;19.66;65.28
50310;BME280;36207;51.850;21.698;2022-07-23T02:18:02;99875.04;;;19.63;65.46
50310;BME280;36207;51.850;21.698;2022-07-23T02:20:28;99873.54;;;19.59;65.51
50310;BME280;36207;51.850;21.698;2022-07-23T02:22:54;99873.54;;;19.55;65.49
50310;BME280;36207;51.850;21.698;2022-07-23T02:25:21;99874.89;;;19.53;65.41
50310;BME280;36207;51.850;21.698;2022-07-23T02:27:47;99871.63;;;19.49;65.52
50310;BME280;36207;51.850;21.698;2022-07-23T02:30:13;99868.34;;;19.47;65.46
50310;BME280;36207;51.850;21.698;2022-07-23T02:32:40;99872.48;;;19.43;65.45
50310;BME280;36207;51.850;21.698;2022-07-23T02:35:07;99871.04;;;19.38;65.43
50310;BME280;36207;51.850;21.698;2022-07-23T02:37:33;99870.09;;;19.34;65.51
50310;BME280;36207;51.850;21.698;2022-07-23T02:40:00;99862.81;;;19.30;65.69
50310;BME280;36207;51.850;21.698;2022-07-23T02:42:26;99861.11;;;19.29;65.74
50310;BME280;36207;51.850;21.698;2022-07-23T02:44:52;99856.63;;;19.30;65.69
50310;BME280;36207;51.850;21.698;2022-07-23T02:47:19;99856.56;;;19.29;65.70
50310;BME280;36207;51.850;21.698;2022-07-23T02:49:45;99854.26;;;19.28;65.91
50310;BME280;36207;51.850;21.698;2022-07-23T02:52:11;99852.73;;;19.25;65.95
50310;BME280;36207;51.850;21.698;2022-07-23T02:54:38;99856.91;;;19.23;65.94
50310;BME280;36207;51.850;21.698;2022-07-23T02:57:04;99859.27;;;19.21;66.05
50310;BME280;36207;51.850;21.698;2022-07-23T02:59:31;99867.86;;;19.23;66.01
50310;BME280;36207;51.850;21.698;2022-07-23T03:01:57;99869.11;;;19.23;66.03
50310;BME280;36207;51.850;21.698;2022-07-23T03:04:24;99867.39;;;19.24;66.05
50310;BME280;36207;51.850;21.698;2022-07-23T03:06:50;99866.27;;;19.22;66.00
50310;BME280;36207;51.850;21.698;2022-07-23T03:09:16;99862.84;;;19.20;66.18
50310;BME280;36207;51.850;21.698;2022-07-23T03:11:43;99863.31;;;19.19;65.98
50310;BME280;36207;51.850;21.698;2022-07-23T03:14:09;99864.03;;;19.21;66.04
50310;BME280;36207;51.850;21.698;2022-07-23T03:16:39;99865.63;;;19.22;66.20
50310;BME280;36207;51.850;21.698;2022-07-23T03:19:06;99864.67;;;19.23;66.27
50310;BME280;36207;51.850;21.698;2022-07-23T03:21:32;99861.27;;;19.21;66.35
50310;BME280;36207;51.850;21.698;2022-07-23T03:23:58;99859.77;;;19.18;66.32
50310;BME280;36207;51.850;21.698;2022-07-23T03:26:24;99857.33;;;19.16;66.44
50310;BME280;36207;51.850;21.698;2022-07-23T03:28:51;99855.40;;;19.17;66.51
50310;BME280;36207;51.850;21.698;2022-07-23T03:31:18;99855.07;;;19.19;66.52
50310;BME280;36207;51.850;21.698;2022-07-23T03:33:44;99854.91;;;19.23;66.79
50310;BME280;36207;51.850;21.698;2022-07-23T03:36:11;99855.00;;;19.24;66.65
50310;BME280;36207;51.850;21.698;2022-07-23T03:38:37;99852.83;;;19.26;66.74
50310;BME280;36207;51.850;21.698;2022-07-23T03:41:03;99855.20;;;19.31;66.96
50310;BME280;36207;51.850;21.698;2022-07-23T03:43:30;99857.23;;;19.38;67.16
50310;BME280;36207;51.850;21.698;2022-07-23T03:45:56;99859.78;;;19.44;67.18
50310;BME280;36207;51.850;21.698;2022-07-23T03:48:22;99862.77;;;19.50;67.19
50310;BME280;36207;51.850;21.698;2022-07-23T03:50:49;99864.74;;;19.54;67.12
50310;BME280;36207;51.850;21.698;2022-07-23T03:53:15;99867.52;;;19.58;67.16
50310;BME280;36207;51.850;21.698;2022-07-23T03:55:42;99870.11;;;19.60;67.12
50310;BME280;36207;51.850;21.698;2022-07-23T03:58:08;99875.26;;;19.63;67.09
50310;BME280;36207;51.850;21.698;2022-07-23T04:00:34;99877.37;;;19.67;67.34
50310;BME280;36207;51.850;21.698;2022-07-23T04:03:01;99877.98;;;19.71;67.59
50310;BME280;36207;51.850;21.698;2022-07-23T04:05:27;99880.29;;;19.75;67.57
50310;BME280;36207;51.850;21.698;2022-07-23T04:07:53;99881.96;;;19.76;67.57
50310;BME280;36207;51.850;21.698;2022-07-23T04:10:19;99879.23;;;19.79;67.62
50310;BME280;36207;51.850;21.698;2022-07-23T04:12:46;99883.68;;;19.83;67.65
50310;BME280;36207;51.850;21.698;2022-07-23T04:15:12;99882.54;;;19.87;67.66
50310;BME280;36207;51.850;21.698;2022-07-23T04:17:39;99884.48;;;19.95;67.56
50310;BME280;36207;51.850;21.698;2022-07-23T04:20:06;99880.10;;;20.04;67.81
50310;BME280;36207;51.850;21.698;2022-07-23T04:22:32;99883.27;;;20.15;67.89
50310;BME280;36207;51.850;21.698;2022-07-23T04:24:59;99880.29;;;20.22;67.75
50310;BME280;36207;51.850;21.698;2022-07-23T04:27:25;99879.72;;;20.30;67.74
50310;BME280;36207;51.850;21.698;2022-07-23T04:29:52;99881.61;;;20.40;67.73
50310;BME280;36207;51.850;21.698;2022-07-23T04:32:18;99880.81;;;20.51;67.83
50310;BME280;36207;51.850;21.698;2022-07-23T04:34:44;99875.36;;;20.63;68.06
50310;BME280;36207;51.850;21.698;2022-07-23T04:37:10;99870.41;;;20.76;68.13
50310;BME280;36207;51.850;21.698;2022-07-23T04:39:37;99868.20;;;20.88;68.07
50310;BME280;36207;51.850;21.698;2022-07-23T04:42:03;99869.33;;;21.01;67.94
50310;BME280;36207;51.850;21.698;2022-07-23T04:44:29;99867.48;;;21.13;68.02
50310;BME280;36207;51.850;21.698;2022-07-23T04:46:56;99865.23;;;21.23;67.82
50310;BME280;36207;51.850;21.698;2022-07-23T04:49:22;99865.42;;;21.31;67.69
50310;BME280;36207;51.850;21.698;2022-07-23T04:51:48;99858.43;;;21.40;67.71
50310;BME280;36207;51.850;21.698;2022-07-23T04:54:15;99855.70;;;21.53;67.83
50310;BME280;36207;51.850;21.698;2022-07-23T04:56:43;99858.11;;;21.65;67.72
50310;BME280;36207;51.850;21.698;2022-07-23T04:59:10;99857.02;;;21.75;67.55
50310;BME280;36207;51.850;21.698;2022-07-23T05:01:36;99854.41;;;21.82;67.66
50310;BME280;36207;51.850;21.698;2022-07-23T05:04:02;99851.29;;;21.91;67.50
50310;BME280;36207;51.850;21.698;2022-07-23T05:06:28;99852.10;;;22.00;67.32
50310;BME280;36207;51.850;21.698;2022-07-23T05:08:55;99856.85;;;22.09;67.30
50310;BME280;36207;51.850;21.698;2022-07-23T05:11:21;99863.18;;;22.18;67.21
50310;BME280;36207;51.850;21.698;2022-07-23T05:13:47;99859.21;;;22.29;67.39
50310;BME280;36207;51.850;21.698;2022-07-23T05:16:14;99863.70;;;22.40;67.40
50310;BME280;36207;51.850;21.698;2022-07-23T05:18:40;99866.05;;;22.48;67.21
50310;BME280;36207;51.850;21.698;2022-07-23T05:21:06;99864.20;;;22.57;67.00
50310;BME280;36207;51.850;21.698;2022-07-23T05:23:33;99856.60;;;22.67;66.96
50310;BME280;36207;51.850;21.698;2022-07-23T05:25:59;99856.55;;;22.80;66.99
50310;BME280;36207;51.850;21.698;2022-07-23T05:28:25;99858.24;;;22.91;66.91
50310;BME280;36207;51.850;21.698;2022-07-23T05:30:52;99858.66;;;23.01;66.86
50310;BME280;36207;51.850;21.698;2022-07-23T05:33:19;99861.33;;;23.11;66.75
50310;BME280;36207;51.850;21.698;2022-07-23T05:35:46;99863.66;;;23.22;66.62
50310;BME280;36207;51.850;21.698;2022-07-23T05:38:13;99867.62;;;23.33;66.42
50310;BME280;36207;51.850;21.698;2022-07-23T05:40:39;99869.84;;;23.45;66.42
50310;BME280;36207;51.850;21.698;2022-07-23T05:43:05;99868.61;;;23.55;66.25
50310;BME280;36207;51.850;21.698;2022-07-23T05:45:32;99868.63;;;23.63;66.05
50310;BME280;36207;51.850;21.698;2022-07-23T05:47:58;99869.65;;;23.72;66.17
50310;BME280;36207;51.850;21.698;2022-07-23T05:50:24;99869.52;;;23.80;66.12
50310;BME280;36207;51.850;21.698;2022-07-23T05:52:51;99869.91;;;23.88;66.00
50310;BME280;36207;51.850;21.698;2022-07-23T05:55:17;99867.09;;;23.96;66.02
50310;BME280;36207;51.850;21.698;2022-07-23T05:57:43;99867.85;;;24.08;66.05
50310;BME280;36207;51.850;21.698;2022-07-23T06:00:10;99862.88;;;24.22;65.98
50310;BME280;36207;51.850;21.698;2022-07-23T06:02:38;99861.96;;;24.37;65.84
50310;BME280;36207;51.850;21.698;2022-07-23T06:05:05;99863.44;;;24.51;65.58
50310;BME280;36207;51.850;21.698;2022-07-23T06:07:33;99865.66;;;24.65;65.61
50310;BME280;36207;51.850;21.698;2022-07-23T06:10:00;99868.20;;;24.76;65.51
50310;BME280;36207;51.850;21.698;2022-07-23T06:12:27;99872.40;;;24.84;65.41
50310;BME280;36207;51.850;21.698;2022-07-23T06:14:53;99871.16;;;24.93;65.22
50310;BME280;36207;51.850;21.698;2022-07-23T06:17:20;99869.06;;;25.02;65.11
50310;BME280;36207;51.850;21.698;2022-07-23T06:19:46;99869.64;;;25.12;65.14
50310;BME280;36207;51.850;21.698;2022-07-23T06:22:12;99872.23;;;25.24;64.95
50310;BME280;36207;51.850;21.698;2022-07-23T06:24:38;99871.27;;;25.33;64.74
50310;BME280;36207;51.850;21.698;2022-07-23T06:27:05;99869.80;;;25.42;64.53
50310;BME280;36207;51.850;21.698;2022-07-23T06:29:31;99872.72;;;25.50;64.35
50310;BME280;36207;51.850;21.698;2022-07-23T06:31:58;99873.17;;;25.57;64.34
50310;BME280;36207;51.850;21.698;2022-07-23T06:34:24;99871.38;;;25.64;64.42
50310;BME280;36207;51.850;21.698;2022-07-23T06:36:51;99869.56;;;25.73;64.32
50310;BME280;36207;51.850;21.698;2022-07-23T06:39:17;99868.11;;;25.81;64.09
50310;BME280;36207;51.850;21.698;2022-07-23T06:41:44;99871.36;;;25.87;64.09
50310;BME280;36207;51.850;21.698;2022-07-23T06:44:10;99870.39;;;25.94;63.94
50310;BME280;36207;51.850;21.698;2022-07-23T06:46:36;99874.46;;;25.99;63.71
50310;BME280;36207;51.850;21.698;2022-07-23T06:49:03;99878.59;;;26.03;63.37
50310;BME280;36207;51.850;21.698;2022-07-23T06:51:30;99878.44;;;26.08;63.47
50310;BME280;36207;51.850;21.698;2022-07-23T06:53:56;99876.93;;;26.12;63.38
50310;BME280;36207;51.850;21.698;2022-07-23T06:56:23;99876.23;;;26.18;63.21
50310;BME280;36207;51.850;21.698;2022-07-23T06:58:49;99875.15;;;26.23;63.31
50310;BME280;36207;51.850;21.698;2022-07-23T07:01:15;99872.02;;;26.30;63.36
50310;BME280;36207;51.850;21.698;2022-07-23T07:03:42;99871.20;;;26.38;63.05
50310;BME280;36207;51.850;21.698;2022-07-23T07:06:08;99869.25;;;26.46;63.28
50310;BME280;36207;51.850;21.698;2022-07-23T07:08:35;99865.86;;;26.59;63.14
50310;BME280;36207;51.850;21.698;2022-07-23T07:11:01;99865.83;;;26.74;63.05
50310;BME280;36207;51.850;21.698;2022-07-23T07:13:28;99863.67;;;26.87;62.97
50310;BME280;36207;51.850;21.698;2022-07-23T07:15:54;99860.95;;;26.99;63.11
50310;BME280;36207;51.850;21.698;2022-07-23T07:18:21;99859.55;;;27.11;62.83
50310;BME280;36207;51.850;21.698;2022-07-23T07:20:47;99856.44;;;27.21;62.48
50310;BME280;36207;51.850;21.698;2022-07-23T07:23:13;99856.54;;;27.31;62.66
50310;BME280;36207;51.850;21.698;2022-07-23T07:25:40;99856.34;;;27.41;62.41
50310;BME280;36207;51.850;21.698;2022-07-23T07:28:06;99856.77;;;27.51;62.56
50310;BME280;36207;51.850;21.698;2022-07-23T07:30:33;99856.80;;;27.59;62.20
50310;BME280;36207;51.850;21.698;2022-07-23T07:32:59;99857.47;;;27.67;62.05
50310;BME280;36207;51.850;21.698;2022-07-23T07:35:25;99854.15;;;27.76;61.99
50310;BME280;36207;51.850;21.698;2022-07-23T07:37:52;99847.79;;;27.88;62.03
50310;BME280;36207;51.850;21.698;2022-07-23T07:40:18;99849.48;;;28.02;61.68
50310;BME280;36207;51.850;21.698;2022-07-23T07:42:46;99849.49;;;28.12;61.11
50310;BME280;36207;51.850;21.698;2022-07-23T07:45:13;99854.48;;;28.19;61.21
50310;BME280;36207;51.850;21.698;2022-07-23T07:47:39;99853.34;;;28.25;60.84
50310;BME280;36207;51.850;21.698;2022-07-23T07:50:06;99855.29;;;28.33;61.18
50310;BME280;36207;51.850;21.698;2022-07-23T07:52:36;99854.41;;;28.43;60.93
50310;BME280;36207;51.850;21.698;2022-07-23T07:55:05;99851.56;;;28.52;60.51
50310;BME280;36207;51.850;21.698;2022-07-23T07:57:31;99851.73;;;28.56;60.13
50310;BME280;36207;51.850;21.698;2022-07-23T07:59:58;99852.75;;;28.60;59.79
50310;BME280;36207;51.850;21.698;2022-07-23T08:02:24;99859.62;;;28.65;60.24
50310;BME280;36207;51.850;21.698;2022-07-23T08:04:51;99862.30;;;28.71;59.43
50310;BME280;36207;51.850;21.698;2022-07-23T08:07:18;99861.25;;;28.75;59.85
50310;BME280;36207;51.850;21.698;2022-07-23T08:09:44;99859.99;;;28.81;59.77
50310;BME280;36207;51.850;21.698;2022-07-23T08:12:10;99857.44;;;28.88;59.78
50310;BME280;36207;51.850;21.698;2022-07-23T08:14:37;99853.20;;;28.96;59.10
50310;BME280;36207;51.850;21.698;2022-07-23T08:17:04;99855.48;;;29.01;58.22
50310;BME280;36207;51.850;21.698;2022-07-23T08:19:30;99853.69;;;29.02;57.85
50310;BME280;36207;51.850;21.698;2022-07-23T08:21:56;99851.88;;;29.03;57.48
50310;BME280;36207;51.850;21.698;2022-07-23T08:24:23;99854.63;;;29.06;57.11
50310;BME280;36207;51.850;21.698;2022-07-23T08:26:49;99852.04;;;29.06;57.30
50310;BME280;36207;51.850;21.698;2022-07-23T08:29:15;99852.46;;;29.10;57.36
50310;BME280;36207;51.850;21.698;2022-07-23T08:31:42;99854.10;;;29.16;56.90
50310;BME280;36207;51.850;21.698;2022-07-23T08:34:08;99850.86;;;29.18;56.12
50310;BME280;36207;51.850;21.698;2022-07-23T08:36:34;99842.81;;;29.22;56.24
50310;BME280;36207;51.850;21.698;2022-07-23T08:39:01;99839.59;;;29.26;55.39
50310;BME280;36207;51.850;21.698;2022-07-23T08:41:29;99845.38;;;29.32;55.58
50310;BME280;36207;51.850;21.698;2022-07-23T08:43:56;99841.84;;;29.38;55.21
50310;BME280;36207;51.850;21.698;2022-07-23T08:46:23;99842.73;;;29.46;54.78
50310;BME280;36207;51.850;21.698;2022-07-23T08:48:50;99835.80;;;29.49;54.57
50310;BME280;36207;51.850;21.698;2022-07-23T08:51:17;99833.35;;;29.51;54.95
50310;BME280;36207;51.850;21.698;2022-07-23T08:53:44;99833.73;;;29.56;54.54
50310;BME280;36207;51.850;21.698;2022-07-23T08:56:11;99836.44;;;29.59;53.24
50310;BME280;36207;51.850;21.698;2022-07-23T08:58:38;99834.71;;;29.63;53.91
50310;BME280;36207;51.850;21.698;2022-07-23T09:01:04;99838.53;;;29.70;53.64
50310;BME280;36207;51.850;21.698;2022-07-23T09:03:33;99838.23;;;29.76;53.73
50310;BME280;36207;51.850;21.698;2022-07-23T09:06:00;99836.63;;;29.84;54.05
50310;BME280;36207;51.850;21.698;2022-07-23T09:08:38;99834.28;;;29.95;54.52
50310;BME280;36207;51.850;21.698;2022-07-23T09:11:10;99833.06;;;30.04;53.50
50310;BME280;36207;51.850;21.698;2022-07-23T09:13:48;99831.65;;;30.11;52.48
50310;BME280;36207;51.850;21.698;2022-07-23T09:16:27;99834.30;;;30.17;52.82
50310;BME280;36207;51.850;21.698;2022-07-23T09:18:57;99836.05;;;30.24;52.87
50310;BME280;36207;51.850;21.698;2022-07-23T09:21:31;99837.15;;;30.32;53.18
50310;BME280;36207;51.850;21.698;2022-07-23T09:26:41;99836.17;;;30.54;52.34
50310;BME280;36207;51.850;21.698;2022-07-23T09:29:15;99836.16;;;30.59;51.31
50310;BME280;36207;51.850;21.698;2022-07-23T09:32:00;99835.31;;;30.61;50.82
50310;BME280;36207;51.850;21.698;2022-07-23T09:34:32;99831.05;;;30.65;51.31
50310;BME280;36207;51.850;21.698;2022-07-23T09:37:14;99826.91;;;30.76;51.46
50310;BME280;36207;51.850;21.698;2022-07-23T09:39:43;99823.05;;;30.85;51.34
50310;BME280;36207;51.850;21.698;2022-07-23T09:42:15;99825.60;;;30.95;51.50
50310;BME280;36207;51.850;21.698;2022-07-23T09:44:46;99823.31;;;31.01;50.40
50310;BME280;36207;51.850;21.698;2022-07-23T09:47:14;99822.30;;;31.02;49.68
50310;BME280;36207;51.850;21.698;2022-07-23T09:49:58;99820.36;;;31.02;49.38
50310;BME280;36207;51.850;21.698;2022-07-23T09:52:31;99815.83;;;31.06;50.01
50310;BME280;36207;51.850;21.698;2022-07-23T09:55:04;99820.09;;;31.13;49.56
50310;BME280;36207;51.850;21.698;2022-07-23T09:57:32;99822.21;;;31.19;49.83
50310;BME280;36207;51.850;21.698;2022-07-23T10:00:07;99820.63;;;31.32;50.50
50310;BME280;36207;51.850;21.698;2022-07-23T10:02:35;99818.12;;;31.46;50.23
50310;BME280;36207;51.850;21.698;2022-07-23T10:05:03;99816.83;;;31.56;49.73
50310;BME280;36207;51.850;21.698;2022-07-23T10:07:38;99817.90;;;31.64;49.76
50310;BME280;36207;51.850;21.698;2022-07-23T10:10:06;99822.15;;;31.65;48.11
50310;BME280;36207;51.850;21.698;2022-07-23T10:12:33;99816.65;;;31.63;47.87
50310;BME280;36207;51.850;21.698;2022-07-23T10:15:06;99814.84;;;31.60;47.56
50310;BME280;36207;51.850;21.698;2022-07-23T10:17:35;99815.72;;;31.59;47.23
50310;BME280;36207;51.850;21.698;2022-07-23T10:20:02;99812.51;;;31.58;47.62
50310;BME280;36207;51.850;21.698;2022-07-23T10:23:00;99809.98;;;31.59;47.34
50310;BME280;36207;51.850;21.698;2022-07-23T10:31:26;99807.23;;;31.76;47.44
50310;BME280;36207;51.850;21.698;2022-07-23T10:34:12;99803.42;;;31.86;47.59
50310;BME280;36207;51.850;21.698;2022-07-23T10:36:46;99797.79;;;31.99;47.87
50310;BME280;36207;51.850;21.698;2022-07-23T10:39:22;99792.55;;;32.09;47.38
50310;BME280;36207;51.850;21.698;2022-07-23T10:41:50;99790.17;;;32.18;47.54
50310;BME280;36207;51.850;21.698;2022-07-23T10:44:19;99791.16;;;32.24;46.57
50310;BME280;36207;51.850;21.698;2022-07-23T10:47:04;99787.64;;;32.23;46.10
50310;BME280;36207;51.850;21.698;2022-07-23T10:49:31;99789.75;;;32.22;45.86
50310;BME280;36207;51.850;21.698;2022-07-23T10:57:16;99791.36;;;32.20;44.92
50310;BME280;36207;51.850;21.698;2022-07-23T11:02:42;99788.38;;;32.24;45.03
50310;BME280;36207;51.850;21.698;2022-07-23T11:05:11;99782.66;;;32.31;45.46
50310;BME280;36207;51.850;21.698;2022-07-23T11:10:36;99789.68;;;32.47;44.88
50310;BME280;36207;51.850;21.698;2022-07-23T11:37:03;99779.21;;;32.63;44.88
50310;BME280;36207;51.850;21.698;2022-07-23T11:39:32;99774.58;;;32.73;44.94
50310;BME280;36207;51.850;21.698;2022-07-23T11:41:59;99774.10;;;32.81;44.51
50310;BME280;36207;51.850;21.698;2022-07-23T11:44:37;99780.36;;;32.85;44.34
50310;BME280;36207;51.850;21.698;2022-07-23T11:47:09;99776.30;;;32.89;44.32
50310;BME280;36207;51.850;21.698;2022-07-23T11:49:36;99776.80;;;32.95;44.30
50310;BME280;36207;51.850;21.698;2022-07-23T11:52:14;99772.60;;;33.03;44.68
50310;BME280;36207;51.850;21.698;2022-07-23T11:54:55;99771.67;;;33.11;44.44
50310;BME280;36207;51.850;21.698;2022-07-23T11:57:27;99772.45;;;33.21;44.62
50310;BME280;36207;51.850;21.698;2022-07-23T12:00:10;99769.43;;;33.27;44.08
50310;BME280;36207;51.850;21.698;2022-07-23T12:02:41;99765.04;;;33.30;43.61
50310;BME280;36207;51.850;21.698;2022-07-23T12:05:15;99763.02;;;33.33;44.16
50310;BME280;36207;51.850;21.698;2022-07-23T12:07:47;99759.06;;;33.37;43.38
50310;BME280;36207;51.850;21.698;2022-07-23T12:10:23;99753.23;;;33.38;43.17
50310;BME280;36207;51.850;21.698;2022-07-23T12:13:02;99751.43;;;33.38;43.11
50310;BME280;36207;51.850;21.698;2022-07-23T12:15:31;99752.32;;;33.41;42.63
50310;BME280;36207;51.850;21.698;2022-07-23T12:18:00;99747.23;;;33.43;42.77
50310;BME280;36207;51.850;21.698;2022-07-23T12:20:36;99744.07;;;33.45;42.68
50310;BME280;36207;51.850;21.698;2022-07-23T12:23:05;99744.03;;;33.42;41.90
50310;BME280;36207;51.850;21.698;2022-07-23T12:25:38;99737.81;;;33.40;41.87
50310;BME280;36207;51.850;21.698;2022-07-23T12:28:11;99730.50;;;33.39;40.83
50310;BME280;36207;51.850;21.698;2022-07-23T12:30:46;99730.05;;;33.37;41.37
50310;BME280;36207;51.850;21.698;2022-07-23T12:33:37;99730.39;;;33.34;41.22
50310;BME280;36207;51.850;21.698;2022-07-23T12:36:06;99728.77;;;33.32;40.96
50310;BME280;36207;51.850;21.698;2022-07-23T12:38:42;99727.63;;;33.33;41.46
50310;BME280;36207;51.850;21.698;2022-07-23T12:41:09;99725.00;;;33.40;42.02
50310;BME280;36207;51.850;21.698;2022-07-23T12:43:38;99724.42;;;33.46;42.50
50310;BME280;36207;51.850;21.698;2022-07-23T12:46:13;99718.55;;;33.53;42.51
50310;BME280;36207;51.850;21.698;2022-07-23T12:51:26;99707.95;;;33.66;41.75
50310;BME280;36207;51.850;21.698;2022-07-23T12:53:54;99703.13;;;33.69;41.68
50310;BME280;36207;51.850;21.698;2022-07-23T12:59:10;99702.25;;;33.77;41.75
50310;BME280;36207;51.850;21.698;2022-07-23T13:01:55;99697.97;;;33.82;41.62
50310;BME280;36207;51.850;21.698;2022-07-23T13:04:25;99697.15;;;33.86;41.31
50310;BME280;36207;51.850;21.698;2022-07-23T13:06:59;99698.33;;;33.88;41.33
50310;BME280;36207;51.850;21.698;2022-07-23T13:09:31;99692.20;;;33.89;41.53
50310;BME280;36207;51.850;21.698;2022-07-23T13:11:58;99691.69;;;33.88;40.83
50310;BME280;36207;51.850;21.698;2022-07-23T13:14:26;99688.95;;;33.84;40.49
50310;BME280;36207;51.850;21.698;2022-07-23T13:16:53;99683.06;;;33.83;40.67
50310;BME280;36207;51.850;21.698;2022-07-23T13:19:20;99684.10;;;33.84;40.46
50310;BME280;36207;51.850;21.698;2022-07-23T13:21:50;99680.39;;;33.84;40.32
50310;BME280;36207;51.850;21.698;2022-07-23T13:24:16;99674.92;;;33.84;40.41
50310;BME280;36207;51.850;21.698;2022-07-23T13:26:42;99678.34;;;33.81;39.85
50310;BME280;36207;51.850;21.698;2022-07-23T13:29:09;99674.21;;;33.76;39.28
50310;BME280;36207;51.850;21.698;2022-07-23T13:31:37;99667.91;;;33.75;39.69
50310;BME280;36207;51.850;21.698;2022-07-23T13:34:04;99665.27;;;33.74;39.60
50310;BME280;36207;51.850;21.698;2022-07-23T13:36:30;99664.40;;;33.72;39.09
50310;BME280;36207;51.850;21.698;2022-07-23T13:38:57;99658.85;;;33.67;38.88
50310;BME280;36207;51.850;21.698;2022-07-23T13:41:23;99654.08;;;33.62;39.24
50310;BME280;36207;51.850;21.698;2022-07-23T13:43:50;99650.61;;;33.55;39.26